createdAt,value
2023-01-17T00:02:06.925Z,1.57
2023-01-17T00:06:09.517Z,1.57
2023-01-17T00:10:12.856Z,1.58
2023-01-17T00:14:14.257Z,1.57
2023-01-17T00:18:16.980Z,1.53
2023-01-17T00:22:22.398Z,1.48
2023-01-17T00:26:23.806Z,1.57
2023-01-17T00:30:26.095Z,1.52
2023-01-17T00:34:28.831Z,1.48
2023-01-17T00:38:31.887Z,1.42
2023-01-17T00:42:33.297Z,1.36
2023-01-17T00:46:34.719Z,1.31
2023-01-17T00:50:37.789Z,1.33
2023-01-17T00:54:39.226Z,1.28
2023-01-17T00:58:40.627Z,1.39
2023-01-17T01:02:42.109Z,1.70
2023-01-17T01:06:44.917Z,1.86
2023-01-17T01:10:48.059Z,1.92
2023-01-17T01:14:49.748Z,2.03
2023-01-17T01:18:51.138Z,2.13
2023-01-17T01:22:53.861Z,2.25
2023-01-17T01:26:55.272Z,2.47
2023-01-17T01:30:59.295Z,2.55
2023-01-17T01:35:00.711Z,2.60
2023-01-17T01:39:03.559Z,2.64
2023-01-17T01:43:06.179Z,2.79
2023-01-17T01:47:09.071Z,2.91
2023-01-17T01:51:13.468Z,2.93
2023-01-17T01:55:21.187Z,3.16
2023-01-17T01:59:23.473Z,3.33
2023-01-17T02:03:29.277Z,3.40
2023-01-17T02:07:34.411Z,3.46
2023-01-17T02:11:39.779Z,3.48
2023-01-17T02:15:50.023Z,3.49
2023-01-17T02:20:21.849Z,3.56
2023-01-17T02:24:41.367Z,3.56
2023-01-17T02:29:01.375Z,3.62
2023-01-17T02:33:17.827Z,3.67
2023-01-17T02:37:25.986Z,3.77
2023-01-17T02:41:32.548Z,3.74
2023-01-17T02:45:34.011Z,3.88
2023-01-17T02:49:36.881Z,4.02
2023-01-17T02:53:48.065Z,4.13
2023-01-17T02:58:04.751Z,4.38
2023-01-17T03:02:16.513Z,4.37
2023-01-17T03:06:24.909Z,4.40
2023-01-17T03:10:26.348Z,4.30
2023-01-17T03:14:30.877Z,4.31
2023-01-17T03:18:32.308Z,4.30
2023-01-17T03:22:35.032Z,4.28
2023-01-17T03:26:36.429Z,4.31
2023-01-17T03:30:37.860Z,4.27
2023-01-17T03:34:39.248Z,4.26
2023-01-17T03:38:41.983Z,4.28
2023-01-17T03:42:43.407Z,4.24
2023-01-17T03:46:44.800Z,4.17
2023-01-17T03:50:49.946Z,4.15
2023-01-17T03:54:52.674Z,4.11
2023-01-17T03:58:54.062Z,4.04
2023-01-17T04:02:55.487Z,4.02
2023-01-17T04:06:56.916Z,3.92
2023-01-17T04:10:59.677Z,4.05
2023-01-17T04:15:01.095Z,4.00
2023-01-17T04:19:02.505Z,3.98
2023-01-17T04:23:04.174Z,3.92
2023-01-17T04:27:06.921Z,3.85
2023-01-17T04:31:15.452Z,3.83
2023-01-17T04:35:17.033Z,3.81
2023-01-17T04:39:18.449Z,3.82
2023-01-17T04:43:21.178Z,3.84
2023-01-17T04:47:22.744Z,3.83
2023-01-17T04:51:24.303Z,3.70
2023-01-17T04:55:25.741Z,3.78
2023-01-17T04:59:28.501Z,3.71
2023-01-17T05:03:30.417Z,3.81
2023-01-17T05:07:31.819Z,3.73
2023-01-17T05:11:33.476Z,3.70
2023-01-17T05:15:36.769Z,3.74
2023-01-17T05:19:38.234Z,3.71
2023-01-17T05:23:39.640Z,3.76
2023-01-17T05:27:41.049Z,3.56
2023-01-17T05:31:43.777Z,3.55
2023-01-17T05:35:45.225Z,3.54
2023-01-17T05:39:46.629Z,3.72
2023-01-17T05:43:48.082Z,3.57
2023-01-17T05:47:53.147Z,3.53
2023-01-17T05:51:55.052Z,3.33
2023-01-17T05:55:56.514Z,3.52
2023-01-17T05:59:58.007Z,3.45
2023-01-17T06:04:00.756Z,3.53
2023-01-17T06:08:02.361Z,3.57
2023-01-17T06:12:04.405Z,3.61
2023-01-17T06:16:06.355Z,3.58
2023-01-17T06:20:11.846Z,3.53
2023-01-17T06:24:13.413Z,3.37
2023-01-17T06:28:17.087Z,3.32
2023-01-17T06:32:18.755Z,3.39
2023-01-17T06:36:21.518Z,3.32
2023-01-17T06:40:23.832Z,3.22
2023-01-17T06:44:25.239Z,3.10
2023-01-17T06:48:26.717Z,3.05
2023-01-17T06:52:29.451Z,2.92
2023-01-17T06:56:31.403Z,2.91
2023-01-17T07:00:32.840Z,2.85
2023-01-17T07:04:34.529Z,2.97
2023-01-17T07:08:37.536Z,2.97
2023-01-17T07:12:39.027Z,2.96
2023-01-17T07:16:40.474Z,2.98
2023-01-17T07:20:43.035Z,2.94
2023-01-17T07:24:45.752Z,2.95
2023-01-17T07:28:47.167Z,2.87
2023-01-17T07:32:51.057Z,2.90
2023-01-17T07:36:52.471Z,2.87
2023-01-17T07:40:58.915Z,2.92
2023-01-17T07:45:00.336Z,2.99
2023-01-17T07:49:02.593Z,2.87
2023-01-17T07:53:04.485Z,2.78
2023-01-17T07:57:11.567Z,2.83
2023-01-17T08:01:13.970Z,2.75
2023-01-17T08:05:16.300Z,2.69
2023-01-17T08:09:17.692Z,2.55
2023-01-17T08:13:20.527Z,2.65
2023-01-17T08:17:21.921Z,2.66
2023-01-17T08:21:23.896Z,2.77
2023-01-17T08:25:26.251Z,2.79
2023-01-17T08:29:29.028Z,2.78
2023-01-17T08:33:31.423Z,2.70
2023-01-17T08:37:32.866Z,2.72
2023-01-17T08:41:34.287Z,2.64
2023-01-17T08:45:37.151Z,2.64
2023-01-17T08:49:38.588Z,2.69
2023-01-17T08:53:40.002Z,2.81
2023-01-17T08:57:41.514Z,2.92
2023-01-17T09:01:44.468Z,3.09
2023-01-17T09:05:46.026Z,3.26
2023-01-17T09:09:47.456Z,3.38
2023-01-17T09:13:48.879Z,3.54
2023-01-17T09:17:55.221Z,3.78
2023-01-17T09:21:56.647Z,4.05
2023-01-17T09:25:59.513Z,4.31
2023-01-17T09:30:00.923Z,4.53
2023-01-17T09:34:03.697Z,4.68
2023-01-17T09:38:05.208Z,4.21
2023-01-17T09:42:20.387Z,4.45
2023-01-17T09:46:26.641Z,4.36
2023-01-17T09:50:31.123Z,4.02
2023-01-17T09:54:35.252Z,4.22
2023-01-17T09:58:45.496Z,3.88
2023-01-17T10:03:03.456Z,4.08
2023-01-17T10:07:17.754Z,3.79
2023-01-17T10:11:34.360Z,3.61
2023-01-17T10:15:49.475Z,3.72
2023-01-17T10:20:03.402Z,3.84
2023-01-17T10:24:24.505Z,3.75
2023-01-17T10:28:30.456Z,3.73
2023-01-17T10:32:35.201Z,3.56
2023-01-17T10:36:41.346Z,3.53
2023-01-17T10:40:49.262Z,3.61
2023-01-17T10:44:59.326Z,3.57
2023-01-17T10:49:02.150Z,3.75
2023-01-17T10:53:09.750Z,3.81
2023-01-17T10:57:15.757Z,3.89
2023-01-17T11:01:20.151Z,3.97
2023-01-17T11:05:24.376Z,3.84
2023-01-17T11:09:37.748Z,3.97
2023-01-17T11:13:40.642Z,3.88
2023-01-17T11:17:47.488Z,4.09
2023-01-17T11:21:52.002Z,4.23
2023-01-17T11:25:57.172Z,4.36
2023-01-17T11:30:13.551Z,4.58
2023-01-17T11:34:17.247Z,4.65
2023-01-17T11:38:21.857Z,5.09
2023-01-17T11:42:34.982Z,5.01
2023-01-17T11:46:37.861Z,4.67
2023-01-17T11:50:41.809Z,4.85
2023-01-17T11:54:46.745Z,4.76
2023-01-17T11:58:48.392Z,4.65
2023-01-17T12:03:10.521Z,4.61
2023-01-17T12:07:28.589Z,4.50
2023-01-17T12:11:35.131Z,4.73
2023-01-17T12:15:52.352Z,4.77
2023-01-17T12:19:59.366Z,5.24
2023-01-17T12:24:26.074Z,5.18
2023-01-17T12:28:45.844Z,5.03
2023-01-17T12:33:06.730Z,5.16
2023-01-17T12:37:19.515Z,4.99
2023-01-17T12:41:25.994Z,5.01
2023-01-17T12:45:32.116Z,4.63
2023-01-17T12:49:41.045Z,4.55
2023-01-17T12:53:49.224Z,4.64
2023-01-17T12:57:56.504Z,4.16
2023-01-17T13:02:01.311Z,4.07
2023-01-17T13:06:03.382Z,3.99
2023-01-17T13:10:24.016Z,4.03
2023-01-17T13:14:25.418Z,3.83
2023-01-17T13:18:29.205Z,4.10
2023-01-17T13:22:31.992Z,3.98
2023-01-17T13:26:46.648Z,4.02
2023-01-17T13:31:03.336Z,3.71
2023-01-17T13:35:19.745Z,3.79
2023-01-17T13:39:46.208Z,5.94
2023-01-17T13:43:49.090Z,5.80
2023-01-17T13:47:50.650Z,5.51
2023-01-17T13:52:06.758Z,6.24
2023-01-17T13:56:12.991Z,5.74
2023-01-17T14:00:48.956Z,5.38
2023-01-17T14:05:07.712Z,4.08
2023-01-17T14:09:16.657Z,3.54
2023-01-17T14:13:33.835Z,3.43
2023-01-17T14:17:55.563Z,3.08
2023-01-17T14:22:22.236Z,2.97
2023-01-17T14:26:31.575Z,2.85
2023-01-17T14:30:36.752Z,2.75
2023-01-17T14:34:39.851Z,2.79
2023-01-17T14:38:43.175Z,2.68
2023-01-17T14:42:47.202Z,2.66
2023-01-17T14:46:49.035Z,2.54
2023-01-17T14:50:52.912Z,2.44
2023-01-17T14:54:54.306Z,2.38
2023-01-17T14:59:11.757Z,2.32
2023-01-17T15:03:13.689Z,2.06
2023-01-17T15:07:17.168Z,1.81
2023-01-17T15:11:23.973Z,1.83
2023-01-17T15:15:33.654Z,1.76
2023-01-17T15:19:41.685Z,1.62
2023-01-17T15:23:47.995Z,1.50
2023-01-17T15:27:49.430Z,1.40
2023-01-17T15:31:53.401Z,1.25
2023-01-17T15:35:59.677Z,1.06
2023-01-17T15:40:06.415Z,1.03
2023-01-17T15:44:20.871Z,0.92
2023-01-17T15:48:37.545Z,0.70
2023-01-17T15:52:47.886Z,0.59
2023-01-17T15:57:01.400Z,0.50
2023-01-17T16:01:02.922Z,0.45
2023-01-17T16:05:35.961Z,0.24
2023-01-17T16:09:43.589Z,-0.01
2023-01-17T16:13:46.411Z,-0.14
2023-01-17T16:17:51.052Z,-0.18
2023-01-17T16:21:52.664Z,-0.04
2023-01-17T16:25:54.225Z,0.05
2023-01-17T16:29:57.059Z,0.08
2023-01-17T16:33:58.481Z,0.07
2023-01-17T16:38:02.047Z,-0.09
2023-01-17T16:42:03.703Z,-0.14
2023-01-17T16:46:06.793Z,-0.18
2023-01-17T16:50:10.018Z,-0.18
2023-01-17T16:54:11.449Z,-0.27
2023-01-17T16:58:12.887Z,-0.48
2023-01-17T17:02:15.697Z,-0.66
2023-01-17T17:06:17.240Z,-0.79
2023-01-17T17:10:20.459Z,-0.90
2023-01-17T17:14:21.846Z,-1.06
2023-01-17T17:18:24.580Z,-1.23
2023-01-17T17:22:26.023Z,-1.26
2023-01-17T17:26:29.808Z,-1.32
2023-01-17T17:30:31.606Z,-1.53
2023-01-17T17:34:34.348Z,-1.73
2023-01-17T17:38:36.329Z,-1.87
2023-01-17T17:42:37.835Z,-1.83
2023-01-17T17:46:39.338Z,-1.88
2023-01-17T17:50:42.109Z,-1.99
2023-01-17T17:54:43.496Z,-2.13
2023-01-17T17:58:46.225Z,-2.26
2023-01-17T18:02:47.663Z,-2.31
2023-01-17T18:06:50.418Z,-2.35
2023-01-17T18:10:57.728Z,-2.49
2023-01-17T18:14:59.124Z,-2.66
2023-01-17T18:19:01.060Z,-2.73
2023-01-17T18:23:04.129Z,-2.85
2023-01-17T18:27:05.616Z,-2.89
2023-01-17T18:31:07.656Z,-2.72
2023-01-17T18:35:09.751Z,-2.73
2023-01-17T18:39:14.464Z,-2.71
2023-01-17T18:43:15.885Z,-2.72
2023-01-17T18:47:17.283Z,-2.86
2023-01-17T18:51:19.521Z,-2.84
2023-01-17T18:55:22.262Z,-2.73
2023-01-17T18:59:23.674Z,-2.85
2023-01-17T19:03:26.787Z,-2.97
2023-01-17T19:07:28.190Z,-2.92
2023-01-17T19:11:30.921Z,-2.82
2023-01-17T19:15:32.663Z,-2.93
2023-01-17T19:19:34.070Z,-3.10
2023-01-17T19:23:36.485Z,-3.18
2023-01-17T19:27:39.294Z,-3.03
2023-01-17T19:31:40.963Z,-2.90
2023-01-17T19:35:42.383Z,-3.01
2023-01-17T19:39:43.789Z,-3.12
2023-01-17T19:43:46.620Z,-3.23
2023-01-17T19:47:48.045Z,-3.25
2023-01-17T19:51:49.466Z,-3.36
2023-01-17T19:55:50.947Z,-3.43
2023-01-17T19:59:53.953Z,-3.45
2023-01-17T20:03:57.920Z,-3.38
2023-01-17T20:07:59.899Z,-3.19
2023-01-17T20:12:01.316Z,-3.16
2023-01-17T20:16:05.322Z,-3.29
2023-01-17T20:20:07.300Z,-3.32
2023-01-17T20:24:10.285Z,-3.37
2023-01-17T20:28:11.721Z,-3.47
2023-01-17T20:32:14.508Z,-3.43
2023-01-17T20:36:17.913Z,-3.43
2023-01-17T20:40:19.333Z,-3.51
2023-01-17T20:44:21.016Z,-3.56
2023-01-17T20:48:23.752Z,-3.43
2023-01-17T20:52:25.150Z,-3.29
2023-01-17T20:56:27.473Z,-3.25
2023-01-17T21:00:28.965Z,-3.25
2023-01-17T21:04:31.727Z,-3.20
2023-01-17T21:08:35.275Z,-3.22
2023-01-17T21:12:36.686Z,-3.03
2023-01-17T21:16:39.053Z,-3.01
2023-01-17T21:20:41.939Z,-3.07
2023-01-17T21:24:43.329Z,-3.19
2023-01-17T21:28:46.636Z,-3.52
2023-01-17T21:32:48.033Z,-3.53
2023-01-17T21:36:50.754Z,-3.56
2023-01-17T21:40:56.493Z,-3.59
2023-01-17T21:44:57.905Z,-3.66
2023-01-17T21:48:59.292Z,-3.66
2023-01-17T21:53:02.819Z,-3.61
2023-01-17T21:57:04.221Z,-3.53
2023-01-17T22:01:06.168Z,-3.39
2023-01-17T22:05:09.002Z,-3.44
2023-01-17T22:09:11.725Z,-3.45
2023-01-17T22:13:14.542Z,-3.37
2023-01-17T22:17:15.988Z,-3.34
2023-01-17T22:21:18.920Z,-3.48
2023-01-17T22:25:21.653Z,-3.48
2023-01-17T22:29:23.210Z,-3.48
2023-01-17T22:33:24.601Z,-3.61
2023-01-17T22:37:26.580Z,-3.59
2023-01-17T22:41:29.724Z,-3.60
2023-01-17T22:45:31.161Z,-3.61
2023-01-17T22:49:32.555Z,-3.60
2023-01-17T22:53:34.030Z,-3.60
2023-01-17T22:57:36.772Z,-3.58
2023-01-17T23:01:39.609Z,-3.56
2023-01-17T23:05:41.007Z,-3.50
2023-01-17T23:09:42.400Z,-3.43
2023-01-17T23:13:45.120Z,-3.53
2023-01-17T23:17:46.509Z,-3.56
2023-01-17T23:21:48.313Z,-3.67
2023-01-17T23:25:49.713Z,-3.71
2023-01-17T23:29:52.429Z,-3.83
2023-01-17T23:33:53.841Z,-3.89
2023-01-17T23:37:55.884Z,-3.92
2023-01-17T23:41:57.410Z,-3.83
2023-01-17T23:46:00.525Z,-3.86
2023-01-17T23:50:01.915Z,-3.70
2023-01-17T23:54:03.605Z,-3.44
2023-01-17T23:58:05.910Z,-3.12
